createdAt,value
2022-08-26T00:01:51.906Z,14.77
2022-08-26T00:04:19.721Z,15.25
2022-08-26T00:06:46.964Z,15.23
2022-08-26T00:09:16.188Z,14.85
2022-08-26T00:11:44.643Z,15.48
2022-08-26T00:14:14.041Z,15.15
2022-08-26T00:16:47.929Z,16.48
2022-08-26T00:19:16.131Z,16.13
2022-08-26T00:21:43.555Z,16.48
2022-08-26T00:24:10.743Z,17.63
2022-08-26T00:26:38.894Z,16.35
2022-08-26T00:29:08.607Z,15.60
2022-08-26T00:31:36.767Z,16.63
2022-08-26T00:34:04.570Z,16.15
2022-08-26T00:36:32.321Z,15.45
2022-08-26T00:38:59.478Z,16.65
2022-08-26T00:41:26.772Z,15.18
2022-08-26T00:43:54.631Z,15.75
2022-08-26T00:46:24.175Z,16.73
2022-08-26T00:48:53.506Z,15.65
2022-08-26T00:51:22.430Z,15.30
2022-08-26T00:53:52.712Z,16.77
2022-08-26T00:56:29.883Z,16.95
2022-08-26T00:58:58.115Z,16.25
2022-08-26T01:01:28.149Z,16.00
2022-08-26T01:03:57.997Z,17.20
2022-08-26T01:06:25.883Z,16.27
2022-08-26T01:08:53.249Z,17.58
2022-08-26T01:11:21.187Z,16.88
2022-08-26T01:13:49.399Z,16.73
2022-08-26T01:16:17.121Z,17.48
2022-08-26T01:18:44.985Z,17.27
2022-08-26T01:21:19.036Z,17.13
2022-08-26T01:23:48.339Z,17.48
2022-08-26T01:26:33.788Z,20.08
2022-08-26T01:29:02.993Z,18.63
2022-08-26T01:31:34.161Z,18.33
2022-08-26T01:34:04.897Z,18.65
2022-08-26T01:36:32.045Z,17.42
2022-08-26T01:38:59.285Z,17.13
2022-08-26T01:41:29.161Z,16.63
2022-08-26T01:43:58.030Z,17.60
2022-08-26T01:46:26.789Z,18.50
2022-08-26T01:48:55.249Z,16.90
2022-08-26T01:51:24.332Z,17.10
2022-08-26T01:53:51.547Z,16.60
2022-08-26T01:56:19.746Z,17.88
2022-08-26T01:58:51.820Z,18.25
2022-08-26T02:01:19.394Z,18.77
2022-08-26T02:03:52.060Z,19.25
2022-08-26T02:06:19.762Z,17.70
2022-08-26T02:08:51.388Z,17.75
2022-08-26T02:11:18.581Z,17.67
2022-08-26T02:13:47.226Z,18.27
2022-08-26T02:16:16.992Z,18.05
2022-08-26T02:18:45.148Z,17.17
2022-08-26T02:21:14.348Z,18.63
2022-08-26T02:23:42.565Z,17.30
2022-08-26T02:26:11.262Z,17.63
2022-08-26T02:28:41.574Z,19.10
2022-08-26T02:31:08.729Z,18.67
2022-08-26T02:33:37.211Z,17.45
2022-08-26T02:36:10.485Z,17.70
2022-08-26T02:38:39.333Z,18.60
2022-08-26T02:41:08.064Z,18.27
2022-08-26T02:43:35.208Z,17.70
2022-08-26T02:46:02.627Z,17.60
2022-08-26T02:48:30.668Z,18.27
2022-08-26T02:50:59.761Z,17.20
2022-08-26T02:53:26.952Z,17.58
2022-08-26T02:55:54.945Z,18.45
2022-08-26T02:58:22.522Z,18.38
2022-08-26T03:00:53.124Z,18.60
2022-08-26T03:03:20.755Z,16.73
2022-08-26T03:05:50.739Z,17.08
2022-08-26T03:08:17.973Z,18.00
2022-08-26T03:10:46.486Z,17.85
2022-08-26T03:13:15.314Z,16.92
2022-08-26T03:15:42.430Z,19.10
2022-08-26T03:18:10.979Z,18.17
2022-08-26T03:20:38.696Z,19.15
2022-08-26T03:23:05.977Z,22.05
2022-08-26T03:25:34.182Z,21.58
2022-08-26T03:28:02.213Z,21.02
2022-08-26T03:30:44.655Z,20.48
2022-08-26T03:33:13.681Z,20.00
2022-08-26T03:35:42.805Z,18.10
2022-08-26T03:38:10.081Z,19.58
2022-08-26T03:40:37.928Z,19.08
2022-08-26T03:43:06.467Z,17.35
2022-08-26T03:45:37.126Z,17.17
2022-08-26T03:48:04.551Z,18.00
2022-08-26T03:50:34.111Z,18.08
2022-08-26T03:53:01.633Z,17.35
2022-08-26T03:55:31.992Z,18.50
2022-08-26T03:57:59.911Z,18.40
2022-08-26T04:00:27.201Z,19.95
2022-08-26T04:02:54.530Z,17.05
2022-08-26T04:05:23.195Z,18.95
2022-08-26T04:07:50.717Z,19.85
2022-08-26T04:10:20.252Z,18.20
2022-08-26T04:12:47.645Z,18.33
2022-08-26T04:15:15.806Z,17.27
2022-08-26T04:17:43.158Z,16.50
2022-08-26T04:20:13.856Z,17.05
2022-08-26T04:22:43.480Z,16.40
2022-08-26T04:25:11.190Z,16.25
2022-08-26T04:27:38.486Z,16.38
2022-08-26T04:30:08.920Z,17.20
2022-08-26T04:32:36.975Z,18.73
2022-08-26T04:35:04.789Z,16.70
2022-08-26T04:37:33.554Z,17.35
2022-08-26T04:40:00.815Z,16.23
2022-08-26T04:42:29.321Z,17.77
2022-08-26T04:44:56.459Z,16.83
2022-08-26T04:47:25.551Z,17.52
2022-08-26T04:49:58.323Z,18.02
2022-08-26T04:52:25.507Z,16.77
2022-08-26T04:54:55.417Z,20.02
2022-08-26T04:57:23.327Z,22.90
2022-08-26T04:59:50.852Z,31.20
2022-08-26T05:02:18.154Z,27.17
2022-08-26T05:04:45.438Z,18.50
2022-08-26T05:07:12.905Z,19.25
2022-08-26T05:09:40.866Z,16.10
2022-08-26T05:12:09.148Z,14.90
2022-08-26T05:14:36.791Z,14.40
2022-08-26T05:17:04.073Z,16.38
2022-08-26T05:19:31.940Z,13.35
2022-08-26T05:21:59.921Z,11.50
2022-08-26T05:24:27.044Z,11.20
2022-08-26T05:26:54.540Z,10.93
2022-08-26T05:29:23.736Z,11.00
2022-08-26T05:31:51.905Z,10.15
2022-08-26T05:34:20.056Z,10.07
2022-08-26T05:36:47.646Z,9.65
2022-08-26T05:39:14.900Z,9.63
2022-08-26T05:41:43.175Z,9.68
2022-08-26T05:44:13.940Z,10.52
2022-08-26T05:46:41.933Z,10.90
2022-08-26T05:49:12.719Z,9.80
2022-08-26T05:51:40.701Z,9.98
2022-08-26T05:54:07.874Z,9.60
2022-08-26T05:56:37.730Z,8.50
2022-08-26T05:59:05.316Z,8.30
2022-08-26T06:01:35.682Z,9.20
2022-08-26T06:04:03.212Z,9.02
2022-08-26T06:06:32.162Z,9.32
2022-08-26T06:08:59.740Z,9.35
2022-08-26T06:11:27.730Z,9.85
2022-08-26T06:13:57.968Z,10.57
2022-08-26T06:16:27.362Z,10.52
2022-08-26T06:18:55.086Z,10.50
2022-08-26T06:21:25.268Z,9.43
2022-08-26T06:24:12.033Z,9.77
2022-08-26T06:26:39.701Z,11.55
2022-08-26T06:29:10.481Z,11.25
2022-08-26T06:31:38.064Z,11.30
2022-08-26T06:34:10.687Z,10.57
2022-08-26T06:36:39.477Z,11.65
2022-08-26T06:39:09.420Z,11.80
2022-08-26T06:41:42.710Z,10.77
2022-08-26T06:44:10.488Z,11.68
2022-08-26T06:46:37.681Z,11.80
2022-08-26T06:49:05.621Z,11.25
2022-08-26T06:51:34.809Z,10.57
2022-08-26T06:54:02.246Z,10.32
2022-08-26T06:56:33.441Z,11.82
2022-08-26T06:59:00.686Z,11.13
2022-08-26T07:01:29.354Z,12.98
2022-08-26T07:03:58.449Z,11.07
2022-08-26T07:06:26.650Z,10.13
2022-08-26T07:08:54.797Z,10.65
2022-08-26T07:11:21.945Z,10.35
2022-08-26T07:13:51.415Z,11.90
2022-08-26T07:16:19.192Z,10.80
2022-08-26T07:18:46.870Z,10.32
2022-08-26T07:21:15.255Z,10.18
2022-08-26T07:23:42.441Z,10.18
2022-08-26T07:26:12.662Z,9.75
2022-08-26T07:28:39.870Z,10.02
2022-08-26T07:31:09.647Z,8.73
2022-08-26T07:33:37.344Z,10.48
2022-08-26T07:36:07.181Z,10.25
2022-08-26T07:38:37.399Z,11.48
2022-08-26T07:41:04.551Z,10.85
2022-08-26T07:43:31.896Z,11.27
2022-08-26T07:45:59.004Z,11.38
2022-08-26T07:48:26.146Z,10.38
2022-08-26T07:50:53.781Z,11.18
2022-08-26T07:53:21.658Z,10.63
2022-08-26T07:55:51.856Z,12.52
2022-08-26T07:58:19.781Z,10.88
2022-08-26T08:00:47.524Z,9.68
2022-08-26T08:03:15.425Z,10.25
2022-08-26T08:05:42.826Z,10.63
2022-08-26T08:08:26.761Z,10.63
2022-08-26T08:10:55.602Z,10.15
2022-08-26T08:13:22.728Z,9.88
2022-08-26T08:15:50.708Z,9.75
2022-08-26T08:18:18.072Z,8.98
2022-08-26T08:20:54.670Z,8.90
2022-08-26T08:23:32.935Z,8.52
2022-08-26T08:26:04.823Z,10.82
2022-08-26T08:28:32.065Z,9.18
2022-08-26T08:30:59.260Z,8.38
2022-08-26T08:33:29.210Z,8.15
2022-08-26T08:35:57.133Z,7.72
2022-08-26T08:38:24.787Z,7.93
2022-08-26T08:40:51.971Z,7.10
2022-08-26T08:43:22.088Z,7.28
2022-08-26T08:46:02.086Z,7.35
2022-08-26T08:48:32.911Z,6.57
2022-08-26T08:51:00.250Z,6.80
2022-08-26T08:53:35.019Z,6.32
2022-08-26T08:56:07.922Z,6.22
2022-08-26T08:59:04.572Z,6.40
2022-08-26T09:01:52.303Z,7.53
2022-08-26T09:04:36.488Z,6.75
2022-08-26T09:07:04.236Z,5.95
2022-08-26T09:09:41.794Z,6.13
2022-08-26T09:12:12.738Z,6.10
2022-08-26T09:14:39.970Z,6.20
2022-08-26T09:17:07.172Z,6.50
2022-08-26T09:19:42.212Z,6.70
2022-08-26T09:22:09.937Z,5.47
2022-08-26T09:24:49.136Z,5.97
2022-08-26T09:27:35.338Z,7.95
2022-08-26T09:30:07.705Z,5.72
2022-08-26T09:32:38.708Z,5.85
2022-08-26T09:35:08.120Z,6.22
2022-08-26T09:37:35.722Z,6.75
2022-08-26T09:40:22.661Z,6.82
2022-08-26T09:43:06.767Z,6.43
2022-08-26T09:45:34.441Z,6.55
2022-08-26T09:48:02.336Z,6.65
2022-08-26T09:50:32.763Z,5.75
2022-08-26T09:53:09.867Z,5.97
2022-08-26T09:55:42.009Z,5.72
2022-08-26T09:58:13.415Z,6.00
2022-08-26T10:00:42.059Z,6.28
2022-08-26T10:03:23.083Z,6.90
2022-08-26T10:06:03.977Z,5.95
2022-08-26T10:08:36.900Z,5.78
2022-08-26T10:11:06.343Z,5.63
2022-08-26T10:13:36.460Z,6.63
2022-08-26T10:16:11.977Z,5.68
2022-08-26T10:19:00.279Z,5.72
2022-08-26T10:21:30.050Z,5.75
2022-08-26T10:23:59.635Z,6.18
2022-08-26T10:26:31.391Z,6.55
2022-08-26T10:29:07.263Z,6.22
2022-08-26T10:31:40.357Z,6.22
2022-08-26T10:34:08.996Z,6.22
2022-08-26T10:37:13.744Z,7.43
2022-08-26T10:39:59.364Z,6.70
2022-08-26T10:42:37.770Z,6.65
2022-08-26T10:45:11.862Z,6.32
2022-08-26T10:47:55.037Z,6.85
2022-08-26T10:50:25.633Z,5.93
2022-08-26T10:53:13.575Z,6.82
2022-08-26T10:55:45.779Z,6.57
2022-08-26T10:58:31.655Z,7.32
2022-08-26T11:01:40.618Z,6.40
2022-08-26T11:04:08.659Z,7.85
2022-08-26T11:06:37.129Z,6.40
2022-08-26T11:09:06.193Z,6.50
2022-08-26T11:11:45.389Z,6.55
2022-08-26T11:14:29.012Z,7.72
2022-08-26T11:16:58.730Z,7.97
2022-08-26T11:19:45.585Z,7.10
2022-08-26T11:22:27.602Z,6.35
2022-08-26T11:24:57.811Z,6.43
2022-08-26T11:27:25.861Z,6.95
2022-08-26T11:29:57.744Z,6.65
2022-08-26T11:32:28.312Z,6.63
2022-08-26T11:35:00.482Z,6.20
2022-08-26T11:37:32.365Z,6.95
2022-08-26T11:40:01.601Z,6.88
2022-08-26T11:42:34.276Z,6.90
2022-08-26T11:45:05.538Z,7.00
2022-08-26T11:47:32.967Z,7.72
2022-08-26T11:50:07.724Z,7.90
2022-08-26T11:52:34.844Z,6.95
2022-08-26T11:55:03.773Z,9.18
2022-08-26T11:57:33.417Z,7.85
2022-08-26T12:00:01.454Z,8.20
2022-08-26T12:02:29.189Z,8.48
2022-08-26T12:04:56.934Z,7.50
2022-08-26T12:07:26.989Z,7.30
2022-08-26T12:09:57.818Z,6.70
2022-08-26T12:12:34.743Z,6.55
2022-08-26T12:15:23.657Z,6.82
2022-08-26T12:17:54.505Z,7.05
2022-08-26T12:20:48.487Z,8.57
2022-08-26T12:23:37.538Z,7.07
2022-08-26T12:26:09.895Z,6.63
2022-08-26T12:28:48.734Z,6.13
2022-08-26T12:31:23.972Z,6.30
2022-08-26T12:33:52.551Z,6.22
2022-08-26T12:36:27.443Z,6.05
2022-08-26T12:38:58.296Z,5.95
2022-08-26T12:41:39.787Z,6.57
2022-08-26T12:44:06.973Z,6.72
2022-08-26T12:46:36.300Z,6.22
2022-08-26T12:49:04.148Z,7.15
2022-08-26T12:51:34.783Z,7.13
2022-08-26T12:54:06.765Z,7.32
2022-08-26T12:56:39.029Z,7.10
2022-08-26T12:59:20.278Z,6.25
2022-08-26T13:01:49.427Z,7.18
2022-08-26T13:04:33.860Z,6.78
2022-08-26T13:07:20.129Z,7.75
2022-08-26T13:09:47.665Z,7.57
2022-08-26T13:12:24.509Z,6.97
2022-08-26T13:14:51.723Z,7.10
2022-08-26T13:17:19.109Z,6.35
2022-08-26T13:19:46.219Z,6.57
2022-08-26T13:22:14.280Z,6.15
2022-08-26T13:24:42.921Z,6.50
2022-08-26T13:27:11.210Z,6.30
2022-08-26T13:29:38.448Z,6.45
2022-08-26T13:32:06.770Z,7.13
2022-08-26T13:34:34.156Z,6.10
2022-08-26T13:37:01.343Z,6.50
2022-08-26T13:39:28.660Z,6.68
2022-08-26T13:41:55.736Z,6.57
2022-08-26T13:44:22.868Z,6.45
2022-08-26T13:46:49.974Z,6.65
2022-08-26T13:49:17.148Z,6.20
2022-08-26T13:51:44.330Z,6.38
2022-08-26T13:54:11.582Z,6.32
2022-08-26T13:56:39.141Z,5.50
2022-08-26T13:59:06.561Z,7.18
2022-08-26T14:01:34.390Z,5.80
2022-08-26T14:04:02.980Z,5.57
2022-08-26T14:06:30.351Z,6.10
2022-08-26T14:08:57.448Z,5.72
2022-08-26T14:11:25.020Z,6.07
2022-08-26T14:13:52.456Z,5.55
2022-08-26T14:16:28.021Z,5.68
2022-08-26T14:18:55.715Z,5.65
2022-08-26T14:21:22.861Z,6.07
2022-08-26T14:23:50.008Z,4.72
2022-08-26T14:26:27.830Z,5.88
2022-08-26T14:28:56.569Z,5.60
2022-08-26T14:31:24.536Z,5.07
2022-08-26T14:33:51.855Z,5.82
2022-08-26T14:36:28.173Z,5.55
2022-08-26T14:38:56.657Z,5.57
2022-08-26T14:41:27.180Z,5.60
2022-08-26T14:44:14.236Z,5.43
2022-08-26T14:46:49.636Z,4.88
2022-08-26T14:49:19.356Z,5.40
2022-08-26T14:51:46.909Z,5.70
2022-08-26T14:54:16.929Z,5.95
2022-08-26T14:56:48.866Z,5.65
2022-08-26T14:59:18.069Z,5.25
2022-08-26T15:01:45.735Z,5.70
2022-08-26T15:04:13.494Z,5.97
2022-08-26T15:06:41.200Z,5.53
2022-08-26T15:09:08.585Z,6.93
2022-08-26T15:11:35.776Z,3.88
2022-08-26T15:14:03.102Z,3.22
2022-08-26T15:16:31.175Z,3.53
2022-08-26T15:19:00.662Z,3.90
2022-08-26T15:21:28.614Z,2.83
2022-08-26T15:23:55.755Z,3.33
2022-08-26T15:26:23.638Z,3.20
2022-08-26T15:28:51.476Z,3.28
2022-08-26T15:31:18.834Z,3.38
2022-08-26T15:33:49.113Z,3.50
2022-08-26T15:36:16.255Z,3.72
2022-08-26T15:38:43.530Z,3.53
2022-08-26T15:41:10.821Z,2.75
2022-08-26T15:43:38.479Z,2.85
2022-08-26T15:46:05.754Z,3.40
2022-08-26T15:48:32.919Z,3.60
2022-08-26T15:51:01.942Z,2.92
2022-08-26T15:53:31.306Z,3.35
2022-08-26T15:55:59.056Z,3.30
2022-08-26T15:58:27.352Z,3.10
2022-08-26T16:00:55.387Z,3.40
2022-08-26T16:03:22.851Z,3.30
2022-08-26T16:05:50.191Z,3.55
2022-08-26T16:08:18.972Z,3.15
2022-08-26T16:10:50.431Z,3.83
2022-08-26T16:13:19.190Z,3.22
2022-08-26T16:15:47.507Z,2.90
2022-08-26T16:18:15.689Z,3.70
2022-08-26T16:21:12.548Z,3.53
2022-08-26T16:23:40.309Z,4.10
2022-08-26T16:26:11.253Z,5.00
2022-08-26T16:28:39.025Z,4.70
2022-08-26T16:31:06.577Z,5.25
2022-08-26T16:33:33.731Z,4.97
2022-08-26T16:36:00.910Z,5.50
2022-08-26T16:38:28.093Z,6.40
2022-08-26T16:40:55.186Z,5.63
2022-08-26T16:43:22.449Z,5.50
2022-08-26T16:45:49.567Z,6.63
2022-08-26T16:48:16.714Z,7.70
2022-08-26T16:50:43.954Z,7.68
2022-08-26T16:55:38.233Z,7.70
2022-08-26T16:58:05.383Z,7.15
2022-08-26T17:00:34.593Z,8.45
2022-08-26T17:03:02.030Z,8.57
2022-08-26T17:05:29.329Z,8.32
2022-08-26T17:07:57.772Z,8.10
2022-08-26T17:10:26.280Z,9.20
2022-08-26T17:12:53.592Z,9.50
2022-08-26T17:15:23.689Z,9.18
2022-08-26T17:17:54.655Z,9.15
2022-08-26T17:20:22.713Z,10.45
2022-08-26T17:22:51.669Z,9.68
2022-08-26T17:25:24.306Z,9.75
2022-08-26T17:27:51.541Z,9.73
2022-08-26T17:30:19.129Z,10.70
2022-08-26T17:32:46.563Z,9.75
2022-08-26T17:35:15.495Z,9.68
2022-08-26T17:37:44.731Z,10.00
2022-08-26T17:40:13.853Z,9.70
2022-08-26T17:42:41.098Z,10.52
2022-08-26T17:45:09.097Z,11.90
2022-08-26T17:47:36.684Z,9.27
2022-08-26T17:50:05.284Z,9.32
2022-08-26T17:52:32.401Z,10.10
2022-08-26T17:54:59.595Z,9.20
2022-08-26T17:57:27.123Z,9.93
2022-08-26T17:59:54.729Z,10.82
2022-08-26T18:02:22.378Z,10.32
2022-08-26T18:04:49.609Z,10.15
2022-08-26T18:07:17.139Z,11.52
2022-08-26T18:09:44.635Z,11.98
2022-08-26T18:12:12.161Z,13.05
2022-08-26T18:14:39.307Z,10.40
2022-08-26T18:17:06.578Z,11.55
2022-08-26T18:19:33.867Z,12.13
2022-08-26T18:22:00.982Z,11.85
2022-08-26T18:24:30.441Z,11.82
2022-08-26T18:26:57.669Z,11.65
2022-08-26T18:29:25.535Z,12.00
2022-08-26T18:31:52.659Z,12.45
2022-08-26T18:34:19.976Z,12.15
2022-08-26T18:36:47.732Z,11.57
2022-08-26T18:39:15.525Z,11.70
2022-08-26T18:41:48.410Z,14.18
2022-08-26T18:44:16.543Z,12.43
2022-08-26T18:46:46.199Z,12.25
2022-08-26T18:49:14.423Z,11.77
2022-08-26T18:51:42.206Z,12.27
2022-08-26T18:54:09.835Z,12.07
2022-08-26T18:56:37.528Z,11.20
2022-08-26T18:59:05.910Z,12.35
2022-08-26T19:01:33.723Z,11.98
2022-08-26T19:04:01.840Z,13.77
2022-08-26T19:06:31.606Z,14.88
2022-08-26T19:08:58.935Z,14.82
2022-08-26T19:11:31.603Z,13.88
2022-08-26T19:14:00.719Z,13.77
2022-08-26T19:16:28.460Z,13.15
2022-08-26T19:18:56.390Z,13.40
2022-08-26T19:21:23.725Z,13.27
2022-08-26T19:23:51.333Z,13.18
2022-08-26T19:26:18.495Z,12.95
2022-08-26T19:28:45.690Z,12.68
2022-08-26T19:31:12.983Z,14.45
2022-08-26T19:33:41.941Z,13.38
2022-08-26T19:36:14.570Z,13.25
2022-08-26T19:38:42.915Z,14.85
2022-08-26T19:41:17.502Z,14.75
2022-08-26T19:43:46.363Z,15.18
2022-08-26T19:46:15.911Z,13.18
2022-08-26T19:48:46.641Z,14.02
2022-08-26T19:51:18.529Z,13.98
2022-08-26T19:53:46.381Z,13.93
2022-08-26T19:56:14.310Z,15.13
2022-08-26T19:58:42.248Z,14.73
2022-08-26T20:01:09.621Z,13.68
2022-08-26T20:03:37.595Z,14.10
2022-08-26T20:06:05.680Z,14.40
2022-08-26T20:08:33.492Z,13.02
2022-08-26T20:11:01.938Z,14.73
2022-08-26T20:13:29.178Z,15.23
2022-08-26T20:15:56.384Z,14.10
2022-08-26T20:18:42.026Z,14.48
2022-08-26T20:21:27.305Z,14.82
2022-08-26T20:24:02.219Z,15.82
2022-08-26T20:26:30.378Z,15.07
2022-08-26T20:28:57.881Z,15.88
2022-08-26T20:31:25.648Z,16.50
2022-08-26T20:33:53.551Z,18.17
2022-08-26T20:36:21.942Z,16.83
2022-08-26T20:38:49.703Z,16.80
2022-08-26T20:41:17.072Z,18.77
2022-08-26T20:43:44.469Z,16.65
2022-08-26T20:46:18.790Z,17.75
2022-08-26T20:48:47.265Z,15.63
2022-08-26T20:51:14.945Z,17.15
2022-08-26T20:53:42.163Z,20.00
2022-08-26T20:56:10.180Z,17.30
2022-08-26T20:58:38.142Z,18.92
2022-08-26T21:01:07.949Z,20.40
2022-08-26T21:03:35.891Z,18.58
2022-08-26T21:06:03.713Z,19.48
2022-08-26T21:08:33.176Z,20.27
2022-08-26T21:11:00.864Z,20.02
2022-08-26T21:13:39.194Z,22.52
2022-08-26T21:16:16.441Z,19.15
2022-08-26T21:18:43.852Z,18.20
2022-08-26T21:21:11.021Z,16.48
2022-08-26T21:23:38.273Z,17.55
2022-08-26T21:26:06.708Z,18.02
2022-08-26T21:28:35.538Z,17.27
2022-08-26T21:31:04.358Z,19.60
2022-08-26T21:33:31.798Z,20.52
2022-08-26T21:35:58.954Z,18.63
2022-08-26T21:38:26.532Z,18.45
2022-08-26T21:41:02.305Z,21.23
2022-08-26T21:43:34.892Z,19.48
2022-08-26T21:46:11.373Z,19.92
2022-08-26T21:48:45.678Z,17.73
2022-08-26T21:51:15.436Z,19.02
2022-08-26T21:53:42.957Z,18.98
2022-08-26T21:56:12.113Z,17.77
2022-08-26T21:58:39.530Z,20.63
2022-08-26T22:01:14.131Z,19.80
2022-08-26T22:03:46.742Z,19.10
2022-08-26T22:06:15.069Z,19.42
2022-08-26T22:08:42.278Z,19.63
2022-08-26T22:11:10.444Z,19.58
2022-08-26T22:13:38.923Z,21.35
2022-08-26T22:16:07.081Z,19.13
2022-08-26T22:18:34.589Z,20.40
2022-08-26T22:21:03.377Z,19.50
2022-08-26T22:23:30.839Z,21.05
2022-08-26T22:25:58.977Z,20.77
2022-08-26T22:28:26.338Z,19.20
2022-08-26T22:30:53.559Z,19.77
2022-08-26T22:33:20.862Z,18.30
2022-08-26T22:35:49.765Z,21.23
2022-08-26T22:38:17.635Z,18.58
2022-08-26T22:40:50.376Z,20.10
2022-08-26T22:43:18.521Z,19.57
2022-08-26T22:45:46.871Z,18.65
2022-08-26T22:48:15.718Z,19.38
2022-08-26T22:50:43.375Z,20.80
2022-08-26T22:53:10.618Z,19.95
2022-08-26T22:55:37.966Z,19.90
2022-08-26T22:58:05.955Z,18.77
2022-08-26T23:00:34.272Z,17.52
2022-08-26T23:03:02.229Z,18.08
2022-08-26T23:05:29.726Z,17.30
2022-08-26T23:07:57.224Z,18.30
2022-08-26T23:10:24.851Z,19.30
2022-08-26T23:12:52.672Z,18.85
2022-08-26T23:15:20.835Z,17.52
2022-08-26T23:17:48.620Z,17.95
2022-08-26T23:20:26.307Z,19.13
2022-08-26T23:22:53.605Z,17.77
2022-08-26T23:25:21.456Z,18.52
2022-08-26T23:27:49.058Z,17.92
2022-08-26T23:30:17.980Z,20.05
2022-08-26T23:32:45.252Z,19.88
2022-08-26T23:35:14.215Z,19.27
2022-08-26T23:37:43.670Z,18.35
2022-08-26T23:40:34.220Z,18.98
2022-08-26T23:43:05.347Z,18.65
2022-08-26T23:45:32.856Z,19.15
2022-08-26T23:48:00.245Z,19.90
2022-08-26T23:50:47.500Z,21.63
2022-08-26T23:53:19.433Z,19.83
2022-08-26T23:55:50.804Z,21.25
2022-08-26T23:58:18.681Z,19.42
